createdAt,value
2022-10-15T00:02:04.618Z,116814.50
2022-10-15T00:04:32.270Z,116106.63
2022-10-15T00:06:59.953Z,114035.69
2022-10-15T00:09:27.546Z,114731.31
2022-10-15T00:11:55.093Z,113688.41
2022-10-15T00:14:22.583Z,113680.78
2022-10-15T00:16:51.414Z,114030.88
2022-10-15T00:19:18.871Z,113697.97
2022-10-15T00:21:46.305Z,114728.41
2022-10-15T00:24:13.762Z,115096.13
2022-10-15T00:26:41.236Z,111600.16
2022-10-15T00:29:09.032Z,109531.16
2022-10-15T00:31:36.623Z,110220.09
2022-10-15T00:34:05.415Z,108137.41
2022-10-15T00:36:35.061Z,106772.34
2022-10-15T00:39:03.185Z,106775.91
2022-10-15T00:41:33.052Z,108127.38
2022-10-15T00:44:01.850Z,106074.25
2022-10-15T00:46:32.747Z,105032.06
2022-10-15T00:49:04.751Z,105390.63
2022-10-15T00:51:38.729Z,108492.13
2022-10-15T00:54:06.974Z,107804.50
2022-10-15T00:56:36.014Z,108479.38
2022-10-15T00:59:05.656Z,108472.97
2022-10-15T01:01:33.259Z,107434.47
2022-10-15T01:04:03.496Z,107788.16
2022-10-15T01:06:31.208Z,106054.66
2022-10-15T01:09:01.034Z,105046.19
2022-10-15T01:11:38.620Z,105717.34
2022-10-15T01:14:19.850Z,107790.00
2022-10-15T01:16:51.845Z,105024.97
2022-10-15T01:19:32.800Z,105012.66
2022-10-15T01:22:05.906Z,103288.03
2022-10-15T01:25:04.345Z,100878.22
2022-10-15T01:27:41.704Z,98815.50
2022-10-15T01:30:26.492Z,97112.19
2022-10-15T01:33:12.284Z,97442.69
2022-10-15T01:35:48.990Z,95377.13
2022-10-15T01:38:26.037Z,94673.06
2022-10-15T01:40:58.399Z,91244.22
2022-10-15T01:43:34.016Z,90902.16
2022-10-15T01:46:07.409Z,90889.16
2022-10-15T01:48:37.578Z,89865.47
2022-10-15T01:51:07.703Z,89186.16
2022-10-15T01:53:37.351Z,90549.44
2022-10-15T01:56:08.863Z,90206.72
2022-10-15T01:58:40.047Z,89164.38
2022-10-15T02:01:09.001Z,87793.59
2022-10-15T02:03:45.749Z,87799.53
2022-10-15T02:06:20.498Z,87129.34
2022-10-15T02:08:58.888Z,87793.59
2022-10-15T02:11:26.460Z,87130.81
2022-10-15T02:14:01.745Z,88842.00
2022-10-15T02:16:38.171Z,88846.47
2022-10-15T02:19:09.751Z,89865.47
2022-10-15T02:21:42.826Z,90194.56
2022-10-15T02:24:14.900Z,90883.06
2022-10-15T02:26:44.528Z,89509.25
2022-10-15T02:31:47.301Z,94342.53
2022-10-15T02:34:20.747Z,95370.72
2022-10-15T02:36:48.874Z,97090.97
2022-10-15T02:39:21.094Z,98808.88
2022-10-15T02:41:49.836Z,98474.31
2022-10-15T02:44:17.457Z,97773.09
2022-10-15T02:46:46.408Z,97427.94
2022-10-15T02:49:13.872Z,97086.06
2022-10-15T02:51:41.622Z,99152.53
2022-10-15T02:54:09.273Z,100177.06
2022-10-15T02:56:39.132Z,99831.63
2022-10-15T02:59:07.105Z,97077.09
2022-10-15T03:01:35.259Z,96050.97
2022-10-15T03:04:04.080Z,97090.97
2022-10-15T03:06:31.569Z,98456.94
2022-10-15T03:08:59.395Z,97775.56
2022-10-15T03:11:26.934Z,100161.03
2022-10-15T03:13:54.471Z,100864.69
2022-10-15T03:16:21.979Z,98788.94
2022-10-15T03:18:49.588Z,97759.97
2022-10-15T03:21:18.426Z,97768.16
2022-10-15T03:23:46.231Z,98433.75
2022-10-15T03:26:13.846Z,97081.19
2022-10-15T03:28:41.379Z,99479.53
2022-10-15T03:31:09.137Z,98785.63
2022-10-15T03:33:36.596Z,98432.13
2022-10-15T03:36:04.320Z,98456.94
2022-10-15T03:38:33.130Z,98449.50
2022-10-15T03:41:00.611Z,96381.41
2022-10-15T03:43:28.092Z,96383.81
2022-10-15T03:45:55.583Z,96391.91
2022-10-15T03:48:23.276Z,97421.38
2022-10-15T03:50:50.731Z,98106.78
2022-10-15T03:53:18.149Z,96723.94
2022-10-15T03:55:47.030Z,97403.34
2022-10-15T03:58:14.482Z,97072.22
2022-10-15T04:00:42.577Z,97419.75
2022-10-15T04:03:10.124Z,97423.03
2022-10-15T04:05:37.783Z,99472.88
2022-10-15T04:08:06.112Z,97396.81
2022-10-15T04:10:33.593Z,95688.31
2022-10-15T04:13:02.390Z,94661.09
2022-10-15T04:15:29.835Z,97068.16
2022-10-15T04:17:57.371Z,98113.38
2022-10-15T04:20:25.047Z,101187.28
2022-10-15T04:22:52.567Z,101189.81
2022-10-15T04:25:20.030Z,100853.66
2022-10-15T04:27:47.493Z,101888.63
2022-10-15T04:30:16.359Z,102572.25
2022-10-15T04:32:43.920Z,104292.53
2022-10-15T04:35:11.486Z,103241.16
2022-10-15T04:37:38.938Z,98430.47
2022-10-15T04:40:07.726Z,98792.28
2022-10-15T04:42:35.194Z,97748.44
2022-10-15T04:45:02.721Z,94648.38
2022-10-15T04:47:31.507Z,92254.41
2022-10-15T04:49:59.024Z,90528.13
2022-10-15T04:52:26.486Z,89171.13
2022-10-15T04:54:53.940Z,88826.31
2022-10-15T04:57:21.583Z,86080.41
2022-10-15T04:59:52.582Z,85714.38
2022-10-15T05:02:22.870Z,84005.53
2022-10-15T05:04:52.208Z,82966.50
2022-10-15T05:07:19.700Z,80927.13
2022-10-15T05:09:47.135Z,79566.13
2022-10-15T05:12:14.603Z,80244.56
2022-10-15T05:14:42.528Z,79224.59
2022-10-15T05:17:10.036Z,79215.25
2022-10-15T05:19:37.515Z,78525.78
2022-10-15T05:22:06.306Z,77159.28
2022-10-15T05:24:33.775Z,76135.09
2022-10-15T05:27:03.043Z,74772.09
2022-10-15T05:29:31.063Z,74099.53
2022-10-15T05:31:58.534Z,74448.06
2022-10-15T05:34:28.539Z,74435.50
2022-10-15T05:36:56.008Z,74090.78
2022-10-15T05:39:25.143Z,73418.91
2022-10-15T05:41:53.467Z,73423.22
2022-10-15T05:44:20.935Z,74093.28
2022-10-15T05:46:48.718Z,74783.44
2022-10-15T05:49:16.316Z,75805.47
2022-10-15T05:51:43.856Z,75455.41
2022-10-15T05:54:11.449Z,74787.22
2022-10-15T05:56:40.223Z,77180.69
2022-10-15T05:59:07.703Z,78201.56
2022-10-15T06:01:35.234Z,79579.53
2022-10-15T06:04:03.090Z,80260.78
2022-10-15T06:06:30.581Z,81297.53
2022-10-15T06:08:59.766Z,81972.94
2022-10-15T06:11:27.271Z,80622.81
2022-10-15T06:13:56.192Z,83001.44
2022-10-15T06:16:24.302Z,84373.78
2022-10-15T06:18:54.821Z,85754.03
2022-10-15T06:21:22.626Z,87466.63
2022-10-15T06:23:50.140Z,89864.00
2022-10-15T06:26:17.716Z,90212.75
2022-10-15T06:28:45.264Z,91943.19
2022-10-15T06:31:14.250Z,93996.16
2022-10-15T06:33:41.709Z,95388.38
2022-10-15T06:36:13.519Z,97117.13
2022-10-15T06:38:42.976Z,98173.59
2022-10-15T06:41:10.872Z,99880.31
2022-10-15T06:43:38.366Z,100925.75
2022-10-15T06:46:07.266Z,103324.50
2022-10-15T06:48:36.230Z,102983.75
2022-10-15T06:51:04.855Z,102656.78
2022-10-15T06:53:32.812Z,103337.50
2022-10-15T06:56:02.284Z,103700.09
2022-10-15T06:58:29.774Z,103707.09
2022-10-15T07:01:01.641Z,106806.41
2022-10-15T07:03:29.775Z,108896.34
2022-10-15T07:06:02.437Z,109568.88
2022-10-15T07:08:29.922Z,110283.03
2022-10-15T07:10:57.367Z,107495.91
2022-10-15T07:13:24.900Z,105454.38
2022-10-15T07:15:55.809Z,105450.81
2022-10-15T07:18:26.803Z,108221.88
2022-10-15T07:20:54.331Z,111684.50
2022-10-15T07:23:26.981Z,110314.53
2022-10-15T07:25:55.454Z,112382.78
2022-10-15T07:28:22.974Z,114103.69
2022-10-15T07:30:50.461Z,113776.25
2022-10-15T07:33:17.954Z,115182.16
2022-10-15T07:35:45.439Z,116927.31
2022-10-15T07:38:12.900Z,122494.84
2022-10-15T07:40:42.003Z,129478.13
2022-10-15T07:43:09.472Z,134677.78
2022-10-15T07:45:36.935Z,135062.03
2022-10-15T07:48:04.666Z,144155.47
2022-10-15T07:50:35.423Z,153614.25
2022-10-15T07:53:04.671Z,153994.06
2022-10-15T07:55:32.124Z,154014.78
2022-10-15T07:58:00.910Z,154082.03
2022-10-15T08:00:28.437Z,154087.22
2022-10-15T08:02:55.887Z,154106.59
2022-10-15T08:05:23.408Z,154151.94
2022-10-15T08:07:51.046Z,154177.81
2022-10-15T08:10:18.744Z,154128.56
2022-10-15T08:12:46.203Z,154100.16
2022-10-15T08:15:15.078Z,154094.94
2022-10-15T08:17:42.522Z,154063.91
2022-10-15T08:20:10.846Z,154066.50
2022-10-15T08:22:38.372Z,154048.38
2022-10-15T08:25:06.505Z,154084.63
2022-10-15T08:27:34.116Z,154082.03
2022-10-15T08:30:01.938Z,154116.91
2022-10-15T08:32:30.738Z,154133.75
2022-10-15T08:34:58.195Z,154107.88
2022-10-15T08:37:25.765Z,154173.91
2022-10-15T08:39:53.238Z,153270.50
2022-10-15T08:42:24.705Z,145455.13
2022-10-15T08:44:57.208Z,147889.16
2022-10-15T08:47:35.409Z,136692.84
2022-10-15T08:50:11.954Z,135601.09
2022-10-15T08:52:44.000Z,138746.59
2022-10-15T08:55:13.862Z,137359.41
2022-10-15T08:57:47.498Z,139792.31
2022-10-15T09:00:20.380Z,132460.84
2022-10-15T09:02:58.485Z,131750.09
2022-10-15T09:05:32.998Z,129330.16
2022-10-15T09:08:06.834Z,127582.25
2022-10-15T09:10:42.704Z,126852.78
2022-10-15T09:13:16.406Z,119558.81
2022-10-15T09:15:49.441Z,118540.22
2022-10-15T09:18:23.463Z,119610.94
2022-10-15T09:20:51.496Z,130437.63
2022-10-15T09:23:21.393Z,148281.41
2022-10-15T09:25:56.128Z,152661.94
2022-10-15T09:28:29.350Z,154278.69
2022-10-15T09:30:59.650Z,154320.13
2022-10-15T09:33:38.594Z,154329.22
2022-10-15T09:36:18.127Z,154358.94
2022-10-15T09:38:58.055Z,154286.50
2022-10-15T09:41:36.866Z,154265.75
2022-10-15T09:44:10.986Z,154233.44
2022-10-15T09:46:44.805Z,154236.03
2022-10-15T09:49:19.005Z,153630.97
2022-10-15T09:51:49.972Z,154302.03
2022-10-15T09:54:25.931Z,154296.84
2022-10-15T09:56:56.530Z,154302.03
2022-10-15T09:59:25.431Z,154320.13
2022-10-15T10:02:01.674Z,154352.50
2022-10-15T10:04:32.076Z,154401.72
2022-10-15T10:07:02.500Z,154425.06
2022-10-15T10:09:33.722Z,154460.00
2022-10-15T10:12:03.387Z,154491.09
2022-10-15T10:14:34.130Z,154523.44
2022-10-15T10:17:09.264Z,154548.03
2022-10-15T10:19:39.066Z,154566.19
2022-10-15T10:22:14.712Z,154535.09
2022-10-15T10:24:42.283Z,154470.34
2022-10-15T10:27:20.444Z,154487.19
2022-10-15T10:29:56.231Z,154462.59
2022-10-15T10:32:29.005Z,154434.09
2022-10-15T10:34:58.776Z,154447.06
2022-10-15T10:37:27.480Z,154450.94
2022-10-15T10:39:57.836Z,154528.63
2022-10-15T10:42:31.713Z,154529.94
2022-10-15T10:45:18.570Z,154554.53
2022-10-15T10:47:46.508Z,154571.38
2022-10-15T10:50:33.468Z,154610.22
2022-10-15T10:53:21.828Z,154607.63
2022-10-15T10:55:50.395Z,154677.66
2022-10-15T10:58:23.539Z,154669.84
2022-10-15T11:00:55.528Z,154606.34
2022-10-15T11:03:32.654Z,154602.44
2022-10-15T11:06:22.560Z,154594.69
2022-10-15T11:09:02.362Z,154586.94
2022-10-15T11:11:38.035Z,154580.44
2022-10-15T11:14:18.111Z,154605.03
2022-10-15T11:16:55.400Z,154581.72
2022-10-15T11:19:59.764Z,154586.94
2022-10-15T11:22:34.720Z,154595.97
2022-10-15T11:25:15.669Z,154628.38
2022-10-15T11:27:57.272Z,154642.63
2022-10-15T11:30:36.579Z,154599.88
2022-10-15T11:33:20.515Z,154599.88
2022-10-15T11:35:56.057Z,154560.97
2022-10-15T11:38:31.410Z,154577.84
2022-10-15T11:41:20.859Z,154588.19
2022-10-15T11:44:07.672Z,154568.78
2022-10-15T11:46:46.485Z,154559.72
2022-10-15T11:49:27.495Z,154558.44
2022-10-15T11:52:12.288Z,154553.22
2022-10-15T11:54:44.812Z,154599.88
2022-10-15T11:57:15.148Z,154615.38
2022-10-15T11:59:51.002Z,154663.38
2022-10-15T12:02:23.247Z,154653.03
2022-10-15T12:04:55.886Z,154672.44
2022-10-15T12:07:25.344Z,154755.38
2022-10-15T12:09:58.479Z,154781.28
2022-10-15T12:12:35.274Z,154802.06
2022-10-15T12:15:20.047Z,154835.72
2022-10-15T12:17:52.725Z,154835.72
2022-10-15T12:20:21.846Z,154782.59
2022-10-15T12:22:57.931Z,154757.97
2022-10-15T12:25:44.201Z,154776.13
2022-10-15T12:28:18.082Z,154743.72
2022-10-15T12:31:00.019Z,154695.81
2022-10-15T12:33:34.406Z,154672.44
2022-10-15T12:36:09.250Z,154663.38
2022-10-15T12:38:39.884Z,154636.13
2022-10-15T12:41:10.967Z,154636.13
2022-10-15T12:43:43.734Z,154617.97
2022-10-15T12:46:12.785Z,154630.94
2022-10-15T12:48:42.615Z,154649.13
2022-10-15T12:51:34.935Z,154628.38
2022-10-15T12:54:02.497Z,154649.13
2022-10-15T12:56:40.576Z,154638.78
2022-10-15T12:59:29.918Z,154636.13
2022-10-15T13:01:57.418Z,154671.16
2022-10-15T13:04:25.975Z,154747.63
2022-10-15T13:06:53.518Z,154759.28
2022-10-15T13:09:29.146Z,154791.66
2022-10-15T13:12:00.168Z,154822.75
2022-10-15T13:14:38.564Z,154866.84
2022-10-15T13:17:14.581Z,154923.94
2022-10-15T13:19:49.599Z,154965.44
2022-10-15T13:22:23.337Z,154956.34
2022-10-15T13:24:51.332Z,155019.91
2022-10-15T13:27:29.858Z,154986.16
2022-10-15T13:30:00.488Z,154938.22
2022-10-15T13:32:30.044Z,154921.34
2022-10-15T13:34:58.419Z,154892.81
2022-10-15T13:37:31.658Z,154913.53
2022-10-15T13:40:03.138Z,154890.22
2022-10-15T13:42:35.774Z,154914.84
2022-10-15T13:45:05.927Z,154925.25
2022-10-15T13:47:35.511Z,154892.81
2022-10-15T13:50:19.337Z,154888.91
2022-10-15T13:52:50.776Z,154881.16
2022-10-15T13:55:21.795Z,154860.34
2022-10-15T13:57:57.037Z,154837.03
2022-10-15T14:00:30.385Z,154817.63
2022-10-15T14:03:14.252Z,154772.22
2022-10-15T14:05:41.930Z,154742.41
2022-10-15T14:08:20.627Z,154742.41
2022-10-15T14:10:49.362Z,154691.91
2022-10-15T14:13:18.292Z,154729.47
2022-10-15T14:15:51.289Z,154726.88
2022-10-15T14:18:28.842Z,154721.72
2022-10-15T14:20:56.435Z,154693.19
2022-10-15T14:23:25.871Z,154675.03
2022-10-15T14:25:56.183Z,154690.59
2022-10-15T14:28:51.728Z,154760.56
2022-10-15T14:31:37.813Z,154764.44
2022-10-15T14:34:05.776Z,154761.88
2022-10-15T14:36:43.292Z,154807.22
2022-10-15T14:39:32.012Z,154812.41
2022-10-15T14:42:01.173Z,154782.59
2022-10-15T14:44:43.658Z,154734.66
2022-10-15T14:47:19.568Z,154732.06
2022-10-15T14:49:47.838Z,154752.78
2022-10-15T14:52:20.296Z,154769.63
2022-10-15T14:54:52.185Z,154734.66
2022-10-15T14:57:26.305Z,154734.66
2022-10-15T14:59:56.987Z,154751.47
2022-10-15T15:02:28.080Z,154757.97
2022-10-15T15:05:09.453Z,154711.31
2022-10-15T15:07:40.457Z,154695.81
2022-10-15T15:10:09.851Z,154685.41
2022-10-15T15:12:40.211Z,154682.78
2022-10-15T15:15:15.000Z,154662.09
2022-10-15T15:17:43.258Z,154656.91
2022-10-15T15:20:12.464Z,154628.38
2022-10-15T15:22:41.750Z,154607.63
2022-10-15T15:25:15.633Z,154588.19
2022-10-15T15:27:43.187Z,149897.53
2022-10-15T15:30:17.647Z,139472.69
2022-10-15T15:32:45.472Z,131057.91
2022-10-15T15:35:22.102Z,117447.09
2022-10-15T15:37:49.670Z,108744.09
2022-10-15T15:40:17.266Z,105620.53
2022-10-15T15:42:45.926Z,104221.63
2022-10-15T15:45:22.298Z,101779.19
2022-10-15T15:47:50.574Z,92097.66
2022-10-15T15:50:20.427Z,89317.88
2022-10-15T15:52:48.375Z,87237.22
2022-10-15T15:55:16.112Z,85149.91
2022-10-15T15:57:45.268Z,82399.97
2022-10-15T16:00:13.832Z,80678.28
2022-10-15T16:02:42.998Z,79636.16
2022-10-15T16:05:13.932Z,79672.97
2022-10-15T16:07:41.386Z,80345.03
2022-10-15T16:10:11.832Z,79296.94
2022-10-15T16:12:39.489Z,78962.97
2022-10-15T16:15:11.589Z,80679.66
2022-10-15T16:17:44.018Z,81690.88
2022-10-15T16:20:12.654Z,80986.34
2022-10-15T16:22:40.432Z,79614.09
2022-10-15T16:25:09.225Z,77882.97
2022-10-15T16:27:36.702Z,76503.16
2022-10-15T16:30:05.249Z,74769.69
2022-10-15T16:32:32.736Z,71336.84
2022-10-15T16:35:01.638Z,70290.56
2022-10-15T16:37:29.114Z,68573.38
2022-10-15T16:39:56.951Z,67196.66
2022-10-15T16:42:24.416Z,66172.31
2022-10-15T16:44:52.664Z,65834.22
2022-10-15T16:47:21.315Z,65501.16
2022-10-15T16:49:49.045Z,65831.47
2022-10-15T16:52:17.882Z,65485.69
2022-10-15T16:54:45.351Z,65472.44
2022-10-15T16:57:12.814Z,64436.34
2022-10-15T16:59:40.349Z,63081.31
2022-10-15T17:02:07.942Z,62064.25
2022-10-15T17:04:35.438Z,61715.03
2022-10-15T17:07:03.192Z,60349.88
2022-10-15T17:09:32.251Z,59682.69
2022-10-15T17:12:00.049Z,59687.22
2022-10-15T17:14:27.659Z,60037.59
2022-10-15T17:16:55.114Z,61052.97
2022-10-15T17:19:27.764Z,61057.09
2022-10-15T17:21:58.171Z,62072.66
2022-10-15T17:24:25.736Z,61736.91
2022-10-15T17:26:54.907Z,63096.25
2022-10-15T17:29:27.770Z,63433.03
2022-10-15T17:31:58.309Z,64093.09
2022-10-15T17:34:27.822Z,63058.97
2022-10-15T17:36:56.276Z,63070.69
2022-10-15T17:39:24.589Z,63078.66
2022-10-15T17:41:53.824Z,62390.47
2022-10-15T17:44:21.611Z,63071.22
2022-10-15T17:49:21.490Z,60327.44
2022-10-15T17:51:48.952Z,60653.69
2022-10-15T17:54:16.658Z,58955.44
2022-10-15T17:56:44.183Z,57256.91
2022-10-15T17:59:13.951Z,57251.09
2022-10-15T18:01:57.673Z,56916.19
2022-10-15T18:04:25.656Z,57951.16
2022-10-15T18:06:53.112Z,59288.84
2022-10-15T18:09:20.770Z,57914.88
2022-10-15T18:11:48.978Z,56552.59
2022-10-15T18:14:17.928Z,55523.28
2022-10-15T18:16:45.783Z,54840.38
2022-10-15T18:19:14.122Z,54836.19
2022-10-15T18:21:44.360Z,54147.59
2022-10-15T18:24:16.080Z,54485.84
2022-10-15T18:26:45.026Z,53126.19
2022-10-15T18:29:12.488Z,52784.47
2022-10-15T18:31:41.349Z,52804.16
2022-10-15T18:34:08.826Z,53481.56
2022-10-15T18:36:37.724Z,54166.41
2022-10-15T18:39:05.221Z,55531.28
2022-10-15T18:41:35.637Z,56212.09
2022-10-15T18:44:05.795Z,58230.44
2022-10-15T18:46:35.447Z,57551.38
2022-10-15T18:49:04.515Z,57876.69
2022-10-15T18:51:32.405Z,56518.59
2022-10-15T18:54:00.403Z,56499.47
2022-10-15T18:56:28.383Z,55488.50
2022-10-15T18:58:56.643Z,55478.16
2022-10-15T19:01:27.979Z,54794.41
2022-10-15T19:03:55.729Z,54785.59
2022-10-15T19:06:29.216Z,54440.19
2022-10-15T19:08:58.259Z,54430.94
2022-10-15T19:11:26.659Z,53416.78
2022-10-15T19:13:56.750Z,52410.78
2022-10-15T19:16:24.741Z,53430.38
2022-10-15T19:18:52.308Z,53438.53
2022-10-15T19:21:19.980Z,54118.25
2022-10-15T19:23:48.809Z,54457.69
2022-10-15T19:26:16.646Z,54125.56
2022-10-15T19:28:44.388Z,55130.66
2022-10-15T19:31:22.520Z,55810.19
2022-10-15T19:33:50.005Z,55809.25
2022-10-15T19:36:21.720Z,55789.38
2022-10-15T19:38:50.746Z,55100.28
2022-10-15T19:41:18.337Z,54413.41
2022-10-15T19:43:45.807Z,53730.03
2022-10-15T19:46:13.896Z,53046.94
2022-10-15T19:48:41.330Z,52028.75
2022-10-15T19:51:08.972Z,51354.94
2022-10-15T19:53:37.055Z,51009.59
2022-10-15T19:56:08.577Z,51343.59
2022-10-15T19:58:36.748Z,51003.13
2022-10-15T20:01:05.446Z,49991.72
2022-10-15T20:03:33.876Z,49653.91
2022-10-15T20:06:02.698Z,49991.72
2022-10-15T20:08:31.444Z,50649.31
2022-10-15T20:10:58.979Z,49630.72
2022-10-15T20:13:27.770Z,48952.13
2022-10-15T20:15:55.547Z,47954.19
2022-10-15T20:18:23.299Z,47612.16
2022-10-15T20:20:50.758Z,46600.78
2022-10-15T20:23:18.884Z,45926.63
2022-10-15T20:25:46.735Z,45593.84
2022-10-15T20:28:16.182Z,44916.66
2022-10-15T20:30:45.923Z,44919.38
2022-10-15T20:33:14.092Z,44911.31
2022-10-15T20:35:42.242Z,44578.53
2022-10-15T20:38:09.768Z,44576.63
2022-10-15T20:40:41.240Z,44572.44
2022-10-15T20:43:08.770Z,44227.97
2022-10-15T20:45:42.462Z,43895.97
2022-10-15T20:48:17.691Z,43224.06
2022-10-15T20:50:45.650Z,42886.81
2022-10-15T20:53:13.347Z,42216.03
2022-10-15T20:55:40.845Z,41558.72
2022-10-15T20:58:08.464Z,42227.56
2022-10-15T21:00:36.371Z,42226.84
2022-10-15T21:03:03.802Z,41893.88
2022-10-15T21:05:32.640Z,41896.38
2022-10-15T21:08:00.911Z,41896.03
2022-10-15T21:10:28.389Z,40899.94
2022-10-15T21:12:55.986Z,41237.69
2022-10-15T21:15:23.476Z,41579.00
2022-10-15T21:17:50.949Z,41250.34
2022-10-15T21:20:18.647Z,41927.53
2022-10-15T21:22:47.455Z,42267.66
2022-10-15T21:25:15.080Z,42609.97
2022-10-15T21:27:42.795Z,42950.22
2022-10-15T21:30:11.778Z,42964.50
2022-10-15T21:32:39.242Z,44317.06
2022-10-15T21:35:07.647Z,44653.09
2022-10-15T21:37:35.901Z,45670.81
2022-10-15T21:40:06.261Z,45337.47
2022-10-15T21:42:33.789Z,46007.69
2022-10-15T21:45:01.740Z,46004.94
2022-10-15T21:47:29.583Z,45668.09
2022-10-15T21:49:57.278Z,45664.59
2022-10-15T21:52:24.757Z,45666.53
2022-10-15T21:54:52.223Z,45331.28
2022-10-15T21:57:21.006Z,45666.94
2022-10-15T21:59:48.471Z,45325.09
2022-10-15T22:02:16.073Z,45324.72
2022-10-15T22:04:43.850Z,44985.63
2022-10-15T22:07:11.315Z,44309.88
2022-10-15T22:09:38.794Z,44316.69
2022-10-15T22:12:06.626Z,44647.38
2022-10-15T22:14:35.640Z,43986.28
2022-10-15T22:17:03.141Z,44318.19
2022-10-15T22:19:30.597Z,44665.63
2022-10-15T22:21:58.061Z,45331.28
2022-10-15T22:24:25.530Z,44988.72
2022-10-15T22:26:54.111Z,43973.16
2022-10-15T22:29:23.839Z,43636.09
2022-10-15T22:31:53.750Z,43298.28
2022-10-15T22:34:22.929Z,42290.38
2022-10-15T22:36:50.989Z,42289.31
2022-10-15T22:39:19.511Z,42641.25
2022-10-15T22:41:48.696Z,43985.16
2022-10-15T22:44:18.737Z,43995.28
2022-10-15T22:46:49.049Z,45000.19
2022-10-15T22:49:19.884Z,44648.13
2022-10-15T22:51:47.371Z,44306.84
2022-10-15T22:54:15.704Z,43960.06
2022-10-15T22:56:43.499Z,42941.41
2022-10-15T22:59:11.925Z,41931.47
2022-10-15T23:01:39.675Z,41589.28
2022-10-15T23:04:08.865Z,41248.97
2022-10-15T23:06:38.254Z,40241.44
2022-10-15T23:09:07.864Z,39236.91
2022-10-15T23:11:37.483Z,40244.53
2022-10-15T23:14:07.051Z,40580.28
2022-10-15T23:16:37.340Z,40579.59
2022-10-15T23:19:07.670Z,41246.13
2022-10-15T23:21:38.881Z,41238.38
2022-10-15T23:24:07.152Z,40567.78
2022-10-15T23:26:35.421Z,40231.78
2022-10-15T23:29:05.002Z,40895.41
2022-10-15T23:31:34.697Z,40887.00
2022-10-15T23:34:03.426Z,40549.03
2022-10-15T23:36:32.234Z,39542.19
2022-10-15T23:39:03.018Z,39535.41
2022-10-15T23:41:31.052Z,39535.41
2022-10-15T23:43:58.635Z,39194.22
2022-10-15T23:46:26.368Z,39192.91
2022-10-15T23:48:53.831Z,38856.16
2022-10-15T23:51:23.166Z,38855.81
2022-10-15T23:53:51.390Z,38516.78
2022-10-15T23:56:20.784Z,38850.50
2022-10-15T23:58:49.959Z,38177.16
